createdAt,value
2019-01-06T00:01:06.572Z,17.90
2019-01-06T00:03:41.705Z,17.90
2019-01-06T00:06:22.842Z,17.90
2019-01-06T00:09:04.377Z,17.90
2019-01-06T00:11:39.510Z,17.90
2019-01-06T00:14:20.996Z,17.90
2019-01-06T00:16:53.305Z,17.80
2019-01-06T00:19:24.403Z,17.90
2019-01-06T00:21:59.261Z,17.90
2019-01-06T00:24:31.496Z,17.90
2019-01-06T00:27:17.196Z,17.90
2019-01-06T00:29:52.034Z,17.90
2019-01-06T00:32:30.016Z,17.90
2019-01-06T00:35:21.423Z,17.90
2019-01-06T00:37:53.604Z,17.90
2019-01-06T00:40:23.370Z,17.90
2019-01-06T00:42:55.460Z,17.90
2019-01-06T00:45:36.731Z,17.90
2019-01-06T00:48:06.164Z,17.90
2019-01-06T00:50:51.872Z,17.90
2019-01-06T00:53:39.373Z,17.90
2019-01-06T00:56:26.252Z,17.90
2019-01-06T00:59:03.761Z,17.80
2019-01-06T01:01:41.663Z,17.80
2019-01-06T01:04:16.908Z,17.80
2019-01-06T01:06:46.328Z,17.80
2019-01-06T01:09:43.512Z,17.90
2019-01-06T01:12:29.378Z,17.90
2019-01-06T01:15:07.629Z,17.90
2019-01-06T01:17:53.365Z,17.90
2019-01-06T01:20:31.179Z,17.80
2019-01-06T01:23:15.172Z,17.80
2019-01-06T01:25:53.134Z,17.80
2019-01-06T01:28:28.060Z,17.80
2019-01-06T01:31:06.258Z,17.90
2019-01-06T01:33:54.502Z,17.80
2019-01-06T01:36:42.862Z,17.80
2019-01-06T01:39:15.055Z,17.80
2019-01-06T01:41:50.441Z,17.80
2019-01-06T01:44:22.826Z,17.80
2019-01-06T01:47:07.452Z,17.80
2019-01-06T01:49:39.538Z,17.80
2019-01-06T01:52:25.205Z,17.80
2019-01-06T01:55:10.519Z,17.80
2019-01-06T01:57:48.491Z,17.80
2019-01-06T02:00:20.689Z,17.80
2019-01-06T02:02:59.946Z,17.80
2019-01-06T02:05:45.662Z,17.80
2019-01-06T02:08:21.349Z,17.70
2019-01-06T02:11:07.104Z,17.80
2019-01-06T02:13:42.582Z,17.80
2019-01-06T02:16:17.900Z,17.80
2019-01-06T02:18:59.425Z,17.80
2019-01-06T02:21:31.354Z,17.80
2019-01-06T02:24:16.840Z,17.80
2019-01-06T02:27:02.587Z,17.70
2019-01-06T02:29:40.597Z,17.70
2019-01-06T02:32:10.019Z,17.70
2019-01-06T02:34:54.131Z,17.80
2019-01-06T02:37:26.553Z,17.80
2019-01-06T02:40:07.549Z,17.80
2019-01-06T02:42:45.673Z,17.80
2019-01-06T02:45:18.066Z,17.80
2019-01-06T02:47:47.549Z,17.80
2019-01-06T02:50:32.947Z,17.80
2019-01-06T02:53:14.409Z,17.70
2019-01-06T02:56:01.953Z,17.80
2019-01-06T02:58:37.102Z,17.80
2019-01-06T03:01:09.300Z,17.80
2019-01-06T03:03:41.827Z,17.80
2019-01-06T03:06:30.163Z,17.80
2019-01-06T03:09:02.257Z,17.80
2019-01-06T03:11:37.170Z,17.70
2019-01-06T03:14:09.016Z,17.70
2019-01-06T03:16:55.312Z,17.70
2019-01-06T03:19:43.787Z,17.70
2019-01-06T03:22:29.534Z,17.80
2019-01-06T03:25:14.975Z,17.80
2019-01-06T03:28:03.181Z,17.80
2019-01-06T03:30:35.279Z,17.80
2019-01-06T03:33:13.257Z,17.70
2019-01-06T03:35:54.627Z,17.70
2019-01-06T03:38:24.053Z,17.70
2019-01-06T03:40:56.199Z,17.80
2019-01-06T03:43:31.525Z,17.80
2019-01-06T03:46:20.191Z,17.80
2019-01-06T03:48:52.615Z,17.80
2019-01-06T03:51:40.901Z,17.80
2019-01-06T03:54:29.316Z,17.80
2019-01-06T03:57:07.280Z,17.70
2019-01-06T03:59:53.185Z,17.70
2019-01-06T04:02:29.807Z,17.70
2019-01-06T04:05:07.996Z,17.80
2019-01-06T04:07:40.635Z,17.70
2019-01-06T04:10:31.688Z,17.80
2019-01-06T04:13:21.675Z,17.80
2019-01-06T04:15:51.137Z,17.70
2019-01-06T04:18:23.221Z,17.70
2019-01-06T04:20:56.896Z,17.70
2019-01-06T04:23:28.986Z,17.70
2019-01-06T04:26:01.469Z,17.80
2019-01-06T04:28:47.009Z,17.80
2019-01-06T04:31:31.586Z,17.80
2019-01-06T04:34:01.008Z,17.80
2019-01-06T04:36:36.373Z,17.80
2019-01-06T04:39:11.319Z,17.70
2019-01-06T04:41:49.452Z,17.70
2019-01-06T04:44:27.674Z,17.70
2019-01-06T04:46:57.138Z,17.70
2019-01-06T04:49:32.496Z,17.70
2019-01-06T04:52:17.867Z,17.70
2019-01-06T04:54:55.927Z,17.70
2019-01-06T04:57:34.151Z,17.70
2019-01-06T05:00:23.757Z,17.70
2019-01-06T05:02:58.710Z,17.70
2019-01-06T05:05:40.010Z,17.70
2019-01-06T05:08:14.646Z,17.70
2019-01-06T05:10:59.075Z,17.70
2019-01-06T05:13:40.088Z,17.80
2019-01-06T05:16:22.812Z,17.80
2019-01-06T05:18:58.202Z,17.80
2019-01-06T05:21:30.671Z,17.80
2019-01-06T05:24:05.844Z,17.90
2019-01-06T05:26:51.843Z,17.90
2019-01-06T05:29:29.775Z,17.90
2019-01-06T05:32:02.222Z,17.90
2019-01-06T05:34:37.086Z,17.90
2019-01-06T05:37:06.522Z,17.90
2019-01-06T05:39:41.742Z,17.90
2019-01-06T05:42:23.368Z,17.90
2019-01-06T05:45:09.307Z,17.90
2019-01-06T05:47:38.727Z,17.90
2019-01-06T05:50:16.779Z,17.90
2019-01-06T05:53:00.815Z,18.00
2019-01-06T05:55:39.136Z,18.00
2019-01-06T05:58:18.639Z,18.00
2019-01-06T06:01:04.044Z,17.90
2019-01-06T06:03:39.104Z,18.00
2019-01-06T06:06:24.552Z,18.00
2019-01-06T06:08:53.981Z,18.00
2019-01-06T06:11:34.930Z,18.00
2019-01-06T06:14:07.028Z,18.00
2019-01-06T06:16:36.457Z,18.00
2019-01-06T06:19:11.632Z,18.00
2019-01-06T06:21:55.826Z,18.00
2019-01-06T06:24:41.451Z,18.00
2019-01-06T06:27:13.562Z,18.00
2019-01-06T06:30:01.998Z,18.00
2019-01-06T06:32:50.313Z,18.00
2019-01-06T06:35:33.101Z,18.00
2019-01-06T06:38:09.170Z,18.00
2019-01-06T06:40:50.378Z,18.00
2019-01-06T06:43:25.538Z,18.00
2019-01-06T06:46:14.410Z,18.00
2019-01-06T06:48:55.724Z,18.00
2019-01-06T06:51:25.193Z,18.00
2019-01-06T06:54:11.042Z,18.00
2019-01-06T06:56:52.558Z,18.00
2019-01-06T06:59:42.795Z,18.00
2019-01-06T07:02:35.004Z,17.90
2019-01-06T07:05:04.445Z,18.00
2019-01-06T07:07:34.174Z,17.90
2019-01-06T07:10:22.424Z,18.00
2019-01-06T07:12:57.293Z,18.00
2019-01-06T07:15:32.429Z,18.00
2019-01-06T07:18:14.019Z,18.00
2019-01-06T07:21:02.240Z,18.00
2019-01-06T07:23:31.666Z,18.00
2019-01-06T07:26:12.945Z,18.00
2019-01-06T07:28:56.980Z,18.10
2019-01-06T07:31:26.727Z,18.10
2019-01-06T07:34:10.900Z,18.10
2019-01-06T07:36:42.935Z,18.10
2019-01-06T07:39:15.180Z,18.10
2019-01-06T07:41:56.046Z,18.10
2019-01-06T07:44:44.575Z,18.10
2019-01-06T07:47:31.839Z,18.10
2019-01-06T07:50:06.716Z,18.10
2019-01-06T07:52:47.919Z,18.10
2019-01-06T07:55:20.298Z,18.10
2019-01-06T07:57:50.075Z,18.10
2019-01-06T08:00:28.446Z,18.10
2019-01-06T08:03:13.925Z,18.10
2019-01-06T08:05:59.200Z,18.10
2019-01-06T08:08:44.929Z,18.10
2019-01-06T08:11:23.288Z,18.10
2019-01-06T08:13:56.743Z,18.10
2019-01-06T08:16:26.152Z,18.10
2019-01-06T08:18:55.617Z,18.10
2019-01-06T08:21:25.036Z,18.10
2019-01-06T08:24:13.613Z,18.10
2019-01-06T08:26:43.024Z,18.10
2019-01-06T08:29:18.100Z,18.10
2019-01-06T08:31:52.952Z,18.10
2019-01-06T08:34:27.954Z,18.10
2019-01-06T08:37:13.682Z,18.10
2019-01-06T08:39:51.024Z,18.10
2019-01-06T08:42:32.289Z,18.10
2019-01-06T08:45:20.662Z,18.10
2019-01-06T08:47:53.048Z,18.10
2019-01-06T08:50:30.991Z,18.10
2019-01-06T08:53:05.845Z,18.20
2019-01-06T08:55:37.985Z,18.20
2019-01-06T08:58:07.417Z,18.20
2019-01-06T09:00:48.532Z,18.20
2019-01-06T09:03:17.950Z,18.20
2019-01-06T09:06:05.083Z,18.20
2019-01-06T09:08:37.217Z,18.20
2019-01-06T09:11:28.785Z,18.20
2019-01-06T09:14:17.038Z,18.20
2019-01-06T09:16:54.929Z,18.20
2019-01-06T09:19:29.893Z,18.20
2019-01-06T09:22:17.271Z,18.20
2019-01-06T09:24:52.056Z,18.20
2019-01-06T09:27:21.826Z,18.20
2019-01-06T09:30:03.296Z,18.20
2019-01-06T09:32:44.573Z,18.30
2019-01-06T09:35:22.500Z,18.30
2019-01-06T09:38:06.560Z,18.40
2019-01-06T09:40:47.684Z,18.40
2019-01-06T09:43:31.838Z,18.50
2019-01-06T09:46:07.206Z,18.40
2019-01-06T09:48:39.476Z,18.40
2019-01-06T09:51:24.814Z,18.40
2019-01-06T09:54:10.040Z,18.40
2019-01-06T09:56:41.885Z,18.40
2019-01-06T09:59:11.498Z,18.40
2019-01-06T10:01:52.925Z,18.40
2019-01-06T10:04:38.215Z,18.40
2019-01-06T10:07:21.096Z,18.30
2019-01-06T10:09:59.275Z,18.30
2019-01-06T10:12:40.568Z,18.30
2019-01-06T10:15:12.819Z,18.30
2019-01-06T10:17:42.277Z,18.30
2019-01-06T10:20:26.337Z,18.30
2019-01-06T10:22:55.806Z,18.30
2019-01-06T10:25:34.576Z,18.30
2019-01-06T10:28:07.042Z,18.30
2019-01-06T10:30:48.420Z,18.30
2019-01-06T10:33:38.459Z,18.20
2019-01-06T10:36:24.143Z,18.20
2019-01-06T10:38:53.598Z,18.30
2019-01-06T10:41:26.022Z,18.30
2019-01-06T10:44:13.240Z,18.20
2019-01-06T10:46:44.290Z,18.30
2019-01-06T10:49:31.419Z,18.20
2019-01-06T10:52:19.341Z,18.20
2019-01-06T10:55:07.566Z,18.20
2019-01-06T10:57:50.294Z,18.20
2019-01-06T11:00:28.802Z,18.20
2019-01-06T11:03:14.329Z,18.20
2019-01-06T11:05:55.750Z,18.20
2019-01-06T11:08:44.192Z,18.20
2019-01-06T11:11:31.574Z,18.30
2019-01-06T11:14:03.767Z,18.10
2019-01-06T11:16:51.984Z,18.10
2019-01-06T11:19:27.342Z,18.20
2019-01-06T11:22:11.591Z,18.20
2019-01-06T11:24:52.386Z,17.80
2019-01-06T11:27:33.824Z,17.40
2019-01-06T11:30:03.251Z,16.90
2019-01-06T11:32:53.275Z,16.80
2019-01-06T11:35:42.457Z,16.80
2019-01-06T11:38:11.886Z,16.50
2019-01-06T11:40:44.272Z,16.50
2019-01-06T11:43:13.714Z,16.30
2019-01-06T11:45:46.111Z,16.40
2019-01-06T11:48:18.502Z,16.80
2019-01-06T11:51:05.775Z,17.20
2019-01-06T11:53:40.849Z,17.50
2019-01-06T11:56:28.290Z,17.60
2019-01-06T11:59:00.564Z,17.70
2019-01-06T12:01:30.316Z,17.50
2019-01-06T12:04:08.608Z,17.50
2019-01-06T12:06:54.406Z,17.70
2019-01-06T12:09:35.515Z,17.70
2019-01-06T12:12:13.944Z,17.80
2019-01-06T12:14:43.585Z,17.90
2019-01-06T12:17:22.299Z,17.90
2019-01-06T12:19:51.777Z,18.00
2019-01-06T12:22:39.026Z,18.00
2019-01-06T12:25:24.306Z,18.10
2019-01-06T12:28:05.817Z,18.10
2019-01-06T12:30:54.484Z,18.10
2019-01-06T12:33:24.275Z,18.10
2019-01-06T12:36:12.074Z,18.10
2019-01-06T12:38:44.419Z,18.10
2019-01-06T12:41:16.856Z,18.10
2019-01-06T12:43:46.321Z,18.10
2019-01-06T12:46:18.442Z,18.10
2019-01-06T12:49:04.389Z,18.10
2019-01-06T12:51:43.653Z,18.10
2019-01-06T12:54:16.768Z,18.10
2019-01-06T12:56:57.934Z,18.10
2019-01-06T12:59:30.447Z,18.00
2019-01-06T13:02:11.723Z,18.10
2019-01-06T13:05:00.233Z,18.10
2019-01-06T13:07:44.800Z,18.10
2019-01-06T13:10:32.090Z,18.10
2019-01-06T13:13:20.454Z,18.10
2019-01-06T13:15:55.943Z,18.10
2019-01-06T13:18:27.995Z,18.10
2019-01-06T13:21:02.829Z,18.10
2019-01-06T13:23:41.299Z,18.10
2019-01-06T13:26:16.460Z,18.10
2019-01-06T13:28:57.498Z,18.10
2019-01-06T13:31:44.565Z,18.10
2019-01-06T13:34:17.102Z,18.10
2019-01-06T13:36:58.239Z,18.10
2019-01-06T13:39:30.406Z,18.10
2019-01-06T13:42:16.106Z,18.10
2019-01-06T13:44:45.856Z,18.10
2019-01-06T13:47:21.043Z,18.10
2019-01-06T13:49:59.362Z,18.10
2019-01-06T13:52:47.882Z,18.10
2019-01-06T13:55:23.215Z,18.10
2019-01-06T13:57:56.865Z,18.10
2019-01-06T14:00:44.266Z,18.10
2019-01-06T14:03:31.537Z,18.10
2019-01-06T14:06:13.004Z,18.10
2019-01-06T14:08:42.413Z,18.10
2019-01-06T14:11:21.686Z,18.10
2019-01-06T14:13:53.943Z,18.10
2019-01-06T14:16:26.372Z,18.10
2019-01-06T14:18:55.799Z,18.20
2019-01-06T14:21:34.053Z,18.10
2019-01-06T14:24:08.661Z,18.10
2019-01-06T14:26:41.372Z,18.20
2019-01-06T14:29:10.846Z,18.20
2019-01-06T14:31:55.358Z,18.20
2019-01-06T14:34:43.666Z,18.20
2019-01-06T14:37:15.815Z,18.20
2019-01-06T14:39:50.864Z,18.20
2019-01-06T14:42:20.290Z,18.20
2019-01-06T14:45:01.510Z,18.20
2019-01-06T14:47:33.989Z,18.20
2019-01-06T14:50:18.527Z,18.20
2019-01-06T14:52:53.869Z,18.20
2019-01-06T14:55:35.285Z,18.20
2019-01-06T14:58:10.409Z,18.20
2019-01-06T15:00:39.859Z,18.10
2019-01-06T15:03:25.499Z,18.10
2019-01-06T15:06:04.013Z,18.10
2019-01-06T15:08:36.483Z,18.10
2019-01-06T15:11:20.808Z,18.20
2019-01-06T15:14:07.546Z,18.20
2019-01-06T15:16:53.445Z,18.20
2019-01-06T15:19:31.616Z,18.20
2019-01-06T15:22:12.858Z,18.20
2019-01-06T15:24:53.986Z,18.20
2019-01-06T15:27:23.418Z,18.20
2019-01-06T15:30:12.005Z,18.20
2019-01-06T15:32:50.086Z,18.20
2019-01-06T15:35:40.483Z,18.20
2019-01-06T15:38:10.278Z,18.20
2019-01-06T15:40:54.195Z,18.20
2019-01-06T15:43:39.939Z,18.20
2019-01-06T15:46:15.331Z,18.20
2019-01-06T15:49:00.863Z,18.30
2019-01-06T15:51:32.724Z,18.30
2019-01-06T15:54:05.093Z,18.30
2019-01-06T15:56:53.926Z,18.20
2019-01-06T15:59:39.840Z,18.20
2019-01-06T16:02:25.347Z,18.30
2019-01-06T16:04:54.798Z,18.20
2019-01-06T16:07:24.222Z,18.30
2019-01-06T16:09:56.618Z,18.30
2019-01-06T16:12:26.398Z,18.30
2019-01-06T16:15:04.875Z,18.30
2019-01-06T16:17:37.304Z,18.30
2019-01-06T16:20:12.542Z,18.30
2019-01-06T16:23:00.776Z,18.30
2019-01-06T16:25:30.243Z,18.30
2019-01-06T16:28:02.823Z,18.30
2019-01-06T16:30:51.057Z,18.30
2019-01-06T16:33:32.002Z,18.30
2019-01-06T16:36:21.283Z,18.30
2019-01-06T16:38:50.704Z,18.30
2019-01-06T16:41:36.372Z,18.30
2019-01-06T16:44:26.637Z,18.30
2019-01-06T16:47:12.386Z,18.30
2019-01-06T16:49:56.369Z,18.30
2019-01-06T16:52:40.693Z,18.30
2019-01-06T16:55:15.688Z,18.30
2019-01-06T16:58:03.071Z,18.30
2019-01-06T17:00:41.569Z,18.30
2019-01-06T17:03:22.542Z,18.30
2019-01-06T17:05:52.261Z,18.30
2019-01-06T17:08:39.621Z,18.30
2019-01-06T17:11:20.182Z,18.30
2019-01-06T17:14:08.688Z,18.30
2019-01-06T17:16:52.290Z,18.30
2019-01-06T17:19:30.530Z,18.30
2019-01-06T17:22:16.167Z,18.30
2019-01-06T17:25:01.690Z,18.30
2019-01-06T17:27:31.100Z,18.30
2019-01-06T17:30:21.330Z,18.30
2019-01-06T17:32:50.737Z,18.30
2019-01-06T17:35:35.294Z,18.30
2019-01-06T17:38:10.360Z,18.30
2019-01-06T17:40:57.971Z,18.30
2019-01-06T17:43:33.124Z,18.30
2019-01-06T17:46:18.936Z,18.30
2019-01-06T17:48:51.326Z,18.30
2019-01-06T17:51:36.643Z,18.30
2019-01-06T17:54:21.356Z,18.30
2019-01-06T17:56:51.104Z,18.30
2019-01-06T18:02:34.497Z,18.30
2019-01-06T18:05:16.024Z,18.30
2019-01-06T18:07:51.247Z,18.30
2019-01-06T18:10:36.676Z,18.30
2019-01-06T18:13:22.500Z,18.30
2019-01-06T18:15:54.847Z,18.30
2019-01-06T18:18:40.638Z,18.30
2019-01-06T18:21:25.246Z,18.30
2019-01-06T18:24:00.458Z,18.30
2019-01-06T18:26:32.947Z,18.30
2019-01-06T18:29:11.168Z,18.40
2019-01-06T18:31:46.243Z,18.40
2019-01-06T18:34:21.164Z,18.40
2019-01-06T18:36:56.969Z,18.40
2019-01-06T18:39:26.384Z,18.40
2019-01-06T18:41:58.973Z,18.40
2019-01-06T18:44:43.179Z,18.40
2019-01-06T18:47:18.576Z,18.40
2019-01-06T18:49:56.367Z,18.30
2019-01-06T18:52:34.597Z,18.40
2019-01-06T18:55:04.018Z,18.40
2019-01-06T18:57:33.440Z,18.40
2019-01-06T19:00:05.841Z,18.40
2019-01-06T19:02:53.075Z,18.40
2019-01-06T19:05:35.809Z,18.40
2019-01-06T19:08:05.242Z,18.40
2019-01-06T19:10:40.727Z,18.40
2019-01-06T19:13:12.974Z,18.40
2019-01-06T19:15:42.421Z,18.40
2019-01-06T19:18:27.025Z,18.40
2019-01-06T19:21:08.226Z,18.40
2019-01-06T19:23:53.672Z,18.40
2019-01-06T19:26:39.910Z,18.40
2019-01-06T19:29:22.576Z,18.40
2019-01-06T19:32:08.205Z,18.30
2019-01-06T19:34:54.004Z,18.30
2019-01-06T19:37:29.536Z,18.30
2019-01-06T19:40:13.499Z,18.30
2019-01-06T19:42:59.188Z,18.30
2019-01-06T19:45:46.694Z,18.40
2019-01-06T19:48:34.287Z,18.40
2019-01-06T19:51:15.602Z,18.40
2019-01-06T19:54:01.309Z,18.40
2019-01-06T19:56:36.762Z,18.40
2019-01-06T19:59:18.303Z,18.40
2019-01-06T20:01:53.814Z,18.40
2019-01-06T20:04:39.647Z,18.40
2019-01-06T20:07:11.997Z,18.40
2019-01-06T20:09:56.703Z,18.40
2019-01-06T20:12:42.396Z,18.50
2019-01-06T20:15:23.895Z,18.50
2019-01-06T20:18:12.137Z,18.50
2019-01-06T20:20:53.069Z,18.60
2019-01-06T20:23:22.494Z,18.60
2019-01-06T20:26:09.452Z,18.60
2019-01-06T20:28:38.889Z,18.60
2019-01-06T20:31:11.085Z,18.60
2019-01-06T20:33:56.794Z,18.60
2019-01-06T20:36:29.372Z,18.60
2019-01-06T20:39:07.317Z,18.60
2019-01-06T20:41:36.775Z,18.50
2019-01-06T20:44:06.529Z,18.50
2019-01-06T20:46:42.407Z,18.50
2019-01-06T20:49:31.053Z,18.50
2019-01-06T20:52:09.859Z,18.50
2019-01-06T20:54:54.509Z,18.50
2019-01-06T20:57:23.965Z,18.50
2019-01-06T21:00:09.535Z,18.50
2019-01-06T21:02:41.886Z,18.50
2019-01-06T21:05:29.531Z,18.40
2019-01-06T21:07:58.937Z,18.40
2019-01-06T21:10:28.435Z,18.40
2019-01-06T21:13:07.099Z,18.40
2019-01-06T21:15:36.613Z,18.30
2019-01-06T21:18:21.968Z,18.30
2019-01-06T21:21:00.472Z,18.30
2019-01-06T21:23:35.410Z,18.20
2019-01-06T21:26:21.150Z,18.20
2019-01-06T21:29:07.292Z,18.20
2019-01-06T21:31:37.126Z,18.20
2019-01-06T21:34:06.850Z,18.20
2019-01-06T21:36:36.703Z,18.20
2019-01-06T21:39:09.812Z,18.10
2019-01-06T21:41:39.778Z,18.10
2019-01-06T21:44:15.144Z,18.10
2019-01-06T21:47:01.054Z,18.10
2019-01-06T21:49:45.589Z,18.10
2019-01-06T21:52:15.006Z,18.10
2019-01-06T21:55:00.616Z,18.10
2019-01-06T21:57:33.029Z,18.10
2019-01-06T22:00:02.478Z,18.10
2019-01-06T22:02:48.573Z,18.10
2019-01-06T22:05:29.742Z,18.10
2019-01-06T22:08:15.558Z,18.10
2019-01-06T22:10:53.405Z,18.00
2019-01-06T22:13:31.257Z,18.00
2019-01-06T22:16:18.824Z,18.00
2019-01-06T22:19:04.565Z,18.00
2019-01-06T22:21:34.236Z,18.00
2019-01-06T22:24:23.023Z,18.00
2019-01-06T22:27:07.557Z,18.00
2019-01-06T22:29:50.163Z,18.00
2019-01-06T22:32:36.111Z,18.00
2019-01-06T22:35:11.487Z,18.00
2019-01-06T22:37:43.828Z,18.00
2019-01-06T22:40:13.307Z,18.00
2019-01-06T22:42:48.851Z,18.00
2019-01-06T22:45:34.588Z,17.90
2019-01-06T22:48:18.624Z,17.90
2019-01-06T22:50:51.362Z,18.00
2019-01-06T22:53:20.870Z,17.90
2019-01-06T22:55:50.651Z,17.90
2019-01-06T22:58:36.338Z,17.90
2019-01-06T23:01:14.630Z,17.90
2019-01-06T23:03:52.600Z,17.90
2019-01-06T23:06:41.194Z,17.90
2019-01-06T23:09:13.571Z,17.90
2019-01-06T23:11:59.413Z,17.90
2019-01-06T23:14:37.279Z,17.90
2019-01-06T23:17:10.173Z,17.90
2019-01-06T23:19:51.902Z,17.90
2019-01-06T23:22:37.523Z,17.90
2019-01-06T23:25:07.639Z,17.90
2019-01-06T23:27:42.513Z,17.90
2019-01-06T23:30:17.334Z,17.90
2019-01-06T23:33:02.955Z,17.90
2019-01-06T23:35:44.806Z,17.80
2019-01-06T23:38:23.215Z,17.80
2019-01-06T23:41:11.648Z,17.80
2019-01-06T23:43:46.623Z,17.80
2019-01-06T23:46:33.690Z,17.80
2019-01-06T23:49:08.771Z,17.80
2019-01-06T23:51:50.280Z,17.80
2019-01-06T23:54:35.906Z,17.90
2019-01-06T23:57:05.326Z,17.90
2019-01-06T23:59:52.429Z,18.00
